sensor_id;sensor_type;location;lat;lon;timestamp;P1;durP1;ratioP1;P2;durP2;ratioP2
62941;SDS011;49042;47.318;19.874;2023-08-06T00:00:31;13.20;;;11.07;;
62941;SDS011;49042;47.318;19.874;2023-08-06T00:03:33;13.50;;;10.25;;
62941;SDS011;49042;47.318;19.874;2023-08-06T00:06:34;12.85;;;10.98;;
62941;SDS011;49042;47.318;19.874;2023-08-06T00:09:36;13.82;;;11.18;;
62941;SDS011;49042;47.318;19.874;2023-08-06T00:12:38;15.20;;;10.38;;
62941;SDS011;49042;47.318;19.874;2023-08-06T00:15:40;15.25;;;10.43;;
62941;SDS011;49042;47.318;19.874;2023-08-06T00:18:41;14.80;;;10.98;;
62941;SDS011;49042;47.318;19.874;2023-08-06T00:21:43;13.48;;;10.65;;
62941;SDS011;49042;47.318;19.874;2023-08-06T00:24:45;15.00;;;10.80;;
62941;SDS011;49042;47.318;19.874;2023-08-06T00:27:52;12.98;;;11.18;;
62941;SDS011;49042;47.318;19.874;2023-08-06T00:30:54;12.13;;;10.65;;
62941;SDS011;49042;47.318;19.874;2023-08-06T00:33:57;15.20;;;11.40;;
62941;SDS011;49042;47.318;19.874;2023-08-06T00:36:59;17.67;;;11.70;;
62941;SDS011;49042;47.318;19.874;2023-08-06T00:40:00;13.02;;;11.50;;
62941;SDS011;49042;47.318;19.874;2023-08-06T00:43:02;17.37;;;11.07;;
62941;SDS011;49042;47.318;19.874;2023-08-06T00:46:04;14.55;;;11.05;;
62941;SDS011;49042;47.318;19.874;2023-08-06T00:49:05;16.60;;;12.37;;
62941;SDS011;49042;47.318;19.874;2023-08-06T00:52:07;19.23;;;12.32;;
62941;SDS011;49042;47.318;19.874;2023-08-06T00:55:09;17.62;;;12.85;;
62941;SDS011;49042;47.318;19.874;2023-08-06T00:58:12;14.87;;;11.80;;
62941;SDS011;49042;47.318;19.874;2023-08-06T01:01:15;15.40;;;12.13;;
62941;SDS011;49042;47.318;19.874;2023-08-06T01:04:17;18.37;;;12.48;;
62941;SDS011;49042;47.318;19.874;2023-08-06T01:07:27;20.83;;;14.15;;
62941;SDS011;49042;47.318;19.874;2023-08-06T01:14:05;22.05;;;15.65;;
62941;SDS011;49042;47.318;19.874;2023-08-06T01:17:12;25.50;;;17.30;;
62941;SDS011;49042;47.318;19.874;2023-08-06T01:20:15;24.37;;;17.50;;
62941;SDS011;49042;47.318;19.874;2023-08-06T01:23:17;25.55;;;18.33;;
62941;SDS011;49042;47.318;19.874;2023-08-06T01:29:45;7.18;;;5.40;;
62941;SDS011;49042;47.318;19.874;2023-08-06T01:32:50;8.57;;;5.05;;
62941;SDS011;49042;47.318;19.874;2023-08-06T01:35:57;7.12;;;4.70;;
62941;SDS011;49042;47.318;19.874;2023-08-06T01:39:00;5.75;;;4.03;;
62941;SDS011;49042;47.318;19.874;2023-08-06T01:42:02;8.38;;;4.85;;
62941;SDS011;49042;47.318;19.874;2023-08-06T01:45:05;7.53;;;4.85;;
62941;SDS011;49042;47.318;19.874;2023-08-06T01:48:10;7.60;;;4.57;;
62941;SDS011;49042;47.318;19.874;2023-08-06T01:51:12;7.07;;;4.97;;
62941;SDS011;49042;47.318;19.874;2023-08-06T01:54:13;6.45;;;4.90;;
62941;SDS011;49042;47.318;19.874;2023-08-06T01:57:15;10.63;;;5.95;;
62941;SDS011;49042;47.318;19.874;2023-08-06T02:00:17;8.18;;;5.53;;
62941;SDS011;49042;47.318;19.874;2023-08-06T02:03:18;9.60;;;5.95;;
62941;SDS011;49042;47.318;19.874;2023-08-06T02:06:20;8.73;;;5.85;;
62941;SDS011;49042;47.318;19.874;2023-08-06T02:09:22;10.43;;;6.40;;
62941;SDS011;49042;47.318;19.874;2023-08-06T02:12:23;7.18;;;5.93;;
62941;SDS011;49042;47.318;19.874;2023-08-06T02:15:25;9.10;;;5.97;;
62941;SDS011;49042;47.318;19.874;2023-08-06T02:18:27;7.07;;;5.90;;
62941;SDS011;49042;47.318;19.874;2023-08-06T02:21:29;10.27;;;6.07;;
62941;SDS011;49042;47.318;19.874;2023-08-06T02:24:30;8.48;;;5.93;;
62941;SDS011;49042;47.318;19.874;2023-08-06T02:27:32;8.32;;;5.82;;
62941;SDS011;49042;47.318;19.874;2023-08-06T02:30:34;11.57;;;5.50;;
62941;SDS011;49042;47.318;19.874;2023-08-06T02:33:35;8.07;;;6.03;;
62941;SDS011;49042;47.318;19.874;2023-08-06T02:36:37;9.43;;;5.05;;
62941;SDS011;49042;47.318;19.874;2023-08-06T02:39:39;8.13;;;5.47;;
62941;SDS011;49042;47.318;19.874;2023-08-06T02:42:41;6.18;;;4.78;;
62941;SDS011;49042;47.318;19.874;2023-08-06T02:45:43;5.75;;;4.47;;
62941;SDS011;49042;47.318;19.874;2023-08-06T02:48:44;6.43;;;4.60;;
62941;SDS011;49042;47.318;19.874;2023-08-06T02:51:46;6.30;;;4.97;;
62941;SDS011;49042;47.318;19.874;2023-08-06T02:54:48;6.45;;;4.47;;
62941;SDS011;49042;47.318;19.874;2023-08-06T02:57:49;6.18;;;4.75;;
62941;SDS011;49042;47.318;19.874;2023-08-06T03:04:05;6.18;;;4.10;;
62941;SDS011;49042;47.318;19.874;2023-08-06T03:07:06;5.72;;;4.00;;
62941;SDS011;49042;47.318;19.874;2023-08-06T03:10:08;5.20;;;4.10;;
62941;SDS011;49042;47.318;19.874;2023-08-06T03:13:10;4.03;;;3.60;;
62941;SDS011;49042;47.318;19.874;2023-08-06T03:16:12;5.45;;;3.83;;
62941;SDS011;49042;47.318;19.874;2023-08-06T03:19:14;6.25;;;3.80;;
62941;SDS011;49042;47.318;19.874;2023-08-06T03:22:15;5.30;;;3.67;;
62941;SDS011;49042;47.318;19.874;2023-08-06T03:25:17;5.78;;;3.87;;
62941;SDS011;49042;47.318;19.874;2023-08-06T03:28:19;5.07;;;4.07;;
62941;SDS011;49042;47.318;19.874;2023-08-06T03:31:21;6.12;;;3.90;;
62941;SDS011;49042;47.318;19.874;2023-08-06T03:34:22;6.80;;;4.03;;
62941;SDS011;49042;47.318;19.874;2023-08-06T03:37:24;4.55;;;3.90;;
62941;SDS011;49042;47.318;19.874;2023-08-06T03:40:26;6.32;;;4.45;;
62941;SDS011;49042;47.318;19.874;2023-08-06T03:43:27;5.43;;;4.55;;
62941;SDS011;49042;47.318;19.874;2023-08-06T03:46:29;7.53;;;4.55;;
62941;SDS011;49042;47.318;19.874;2023-08-06T03:49:35;7.37;;;5.18;;
62941;SDS011;49042;47.318;19.874;2023-08-06T03:52:37;8.32;;;5.90;;
62941;SDS011;49042;47.318;19.874;2023-08-06T03:55:38;8.02;;;6.18;;
62941;SDS011;49042;47.318;19.874;2023-08-06T03:58:40;6.60;;;5.40;;
62941;SDS011;49042;47.318;19.874;2023-08-06T04:01:42;7.35;;;5.32;;
62941;SDS011;49042;47.318;19.874;2023-08-06T04:04:43;8.27;;;5.70;;
62941;SDS011;49042;47.318;19.874;2023-08-06T04:07:45;8.45;;;4.93;;
62941;SDS011;49042;47.318;19.874;2023-08-06T04:10:53;9.30;;;5.05;;
62941;SDS011;49042;47.318;19.874;2023-08-06T04:13:56;6.20;;;5.15;;
62941;SDS011;49042;47.318;19.874;2023-08-06T04:16:57;5.97;;;5.15;;
62941;SDS011;49042;47.318;19.874;2023-08-06T04:19:59;7.32;;;5.80;;
62941;SDS011;49042;47.318;19.874;2023-08-06T04:23:05;7.37;;;6.47;;
62941;SDS011;49042;47.318;19.874;2023-08-06T04:26:08;8.60;;;6.93;;
62941;SDS011;49042;47.318;19.874;2023-08-06T04:29:09;9.80;;;7.20;;
62941;SDS011;49042;47.318;19.874;2023-08-06T04:32:11;8.73;;;7.37;;
62941;SDS011;49042;47.318;19.874;2023-08-06T04:35:14;10.35;;;7.47;;
62941;SDS011;49042;47.318;19.874;2023-08-06T04:38:16;8.32;;;6.93;;
62941;SDS011;49042;47.318;19.874;2023-08-06T04:41:17;7.97;;;6.55;;
62941;SDS011;49042;47.318;19.874;2023-08-06T04:44:20;8.30;;;6.60;;
62941;SDS011;49042;47.318;19.874;2023-08-06T04:47:22;8.82;;;6.40;;
62941;SDS011;49042;47.318;19.874;2023-08-06T04:50:23;7.20;;;6.10;;
62941;SDS011;49042;47.318;19.874;2023-08-06T04:53:25;6.85;;;5.30;;
62941;SDS011;49042;47.318;19.874;2023-08-06T04:56:27;5.85;;;4.53;;
62941;SDS011;49042;47.318;19.874;2023-08-06T04:59:29;5.12;;;4.57;;
62941;SDS011;49042;47.318;19.874;2023-08-06T05:02:30;6.87;;;4.87;;
62941;SDS011;49042;47.318;19.874;2023-08-06T05:05:33;8.85;;;5.20;;
62941;SDS011;49042;47.318;19.874;2023-08-06T05:08:35;8.48;;;5.03;;
62941;SDS011;49042;47.318;19.874;2023-08-06T05:11:37;7.22;;;5.40;;
62941;SDS011;49042;47.318;19.874;2023-08-06T05:14:38;6.15;;;5.15;;
62941;SDS011;49042;47.318;19.874;2023-08-06T05:17:40;6.47;;;5.60;;
62941;SDS011;49042;47.318;19.874;2023-08-06T05:20:42;8.25;;;5.20;;
62941;SDS011;49042;47.318;19.874;2023-08-06T05:23:44;7.40;;;6.05;;
62941;SDS011;49042;47.318;19.874;2023-08-06T05:26:46;8.63;;;6.53;;
62941;SDS011;49042;47.318;19.874;2023-08-06T05:29:49;10.60;;;6.72;;
62941;SDS011;49042;47.318;19.874;2023-08-06T05:32:50;10.43;;;6.85;;
62941;SDS011;49042;47.318;19.874;2023-08-06T05:35:52;9.73;;;7.25;;
62941;SDS011;49042;47.318;19.874;2023-08-06T05:38:54;9.93;;;7.03;;
62941;SDS011;49042;47.318;19.874;2023-08-06T05:41:55;9.68;;;7.12;;
62941;SDS011;49042;47.318;19.874;2023-08-06T05:44:57;8.25;;;6.55;;
62941;SDS011;49042;47.318;19.874;2023-08-06T05:47:59;8.52;;;6.78;;
62941;SDS011;49042;47.318;19.874;2023-08-06T05:51:01;8.45;;;6.82;;
62941;SDS011;49042;47.318;19.874;2023-08-06T05:54:02;8.35;;;6.68;;
62941;SDS011;49042;47.318;19.874;2023-08-06T05:57:04;9.20;;;6.90;;
62941;SDS011;49042;47.318;19.874;2023-08-06T06:00:07;7.35;;;6.50;;
62941;SDS011;49042;47.318;19.874;2023-08-06T06:03:09;8.38;;;6.87;;
62941;SDS011;49042;47.318;19.874;2023-08-06T06:06:11;8.77;;;6.72;;
62941;SDS011;49042;47.318;19.874;2023-08-06T06:09:15;7.28;;;6.35;;
62941;SDS011;49042;47.318;19.874;2023-08-06T06:12:17;7.00;;;6.03;;
62941;SDS011;49042;47.318;19.874;2023-08-06T06:15:19;11.00;;;6.47;;
62941;SDS011;49042;47.318;19.874;2023-08-06T06:18:21;7.55;;;6.70;;
62941;SDS011;49042;47.318;19.874;2023-08-06T06:21:25;7.75;;;5.87;;
62941;SDS011;49042;47.318;19.874;2023-08-06T06:24:27;7.50;;;6.50;;
62941;SDS011;49042;47.318;19.874;2023-08-06T06:27:29;9.05;;;6.07;;
62941;SDS011;49042;47.318;19.874;2023-08-06T06:30:31;7.68;;;6.20;;
62941;SDS011;49042;47.318;19.874;2023-08-06T06:33:32;5.95;;;5.15;;
62941;SDS011;49042;47.318;19.874;2023-08-06T06:36:34;7.70;;;6.40;;
62941;SDS011;49042;47.318;19.874;2023-08-06T06:39:36;7.68;;;6.40;;
62941;SDS011;49042;47.318;19.874;2023-08-06T06:42:37;8.00;;;6.00;;
62941;SDS011;49042;47.318;19.874;2023-08-06T06:45:39;6.68;;;5.97;;
62941;SDS011;49042;47.318;19.874;2023-08-06T06:48:41;12.85;;;6.20;;
62941;SDS011;49042;47.318;19.874;2023-08-06T06:51:43;7.12;;;6.25;;
62941;SDS011;49042;47.318;19.874;2023-08-06T06:54:44;7.25;;;5.28;;
62941;SDS011;49042;47.318;19.874;2023-08-06T06:57:46;6.03;;;5.30;;
62941;SDS011;49042;47.318;19.874;2023-08-06T07:00:48;6.15;;;5.12;;
62941;SDS011;49042;47.318;19.874;2023-08-06T07:03:50;6.07;;;5.43;;
62941;SDS011;49042;47.318;19.874;2023-08-06T07:06:51;6.87;;;4.62;;
62941;SDS011;49042;47.318;19.874;2023-08-06T07:09:54;6.15;;;4.60;;
62941;SDS011;49042;47.318;19.874;2023-08-06T07:12:56;5.93;;;3.87;;
62941;SDS011;49042;47.318;19.874;2023-08-06T07:15:57;5.60;;;3.70;;
62941;SDS011;49042;47.318;19.874;2023-08-06T07:19:00;3.20;;;2.83;;
62941;SDS011;49042;47.318;19.874;2023-08-06T07:22:01;3.35;;;2.45;;
62941;SDS011;49042;47.318;19.874;2023-08-06T07:25:03;3.33;;;1.50;;
62941;SDS011;49042;47.318;19.874;2023-08-06T07:28:05;2.72;;;1.50;;
62941;SDS011;49042;47.318;19.874;2023-08-06T07:31:07;2.17;;;1.60;;
62941;SDS011;49042;47.318;19.874;2023-08-06T07:34:09;4.10;;;1.58;;
62941;SDS011;49042;47.318;19.874;2023-08-06T07:37:11;1.73;;;1.10;;
62941;SDS011;49042;47.318;19.874;2023-08-06T07:40:13;1.25;;;1.00;;
62941;SDS011;49042;47.318;19.874;2023-08-06T07:43:15;1.67;;;1.05;;
62941;SDS011;49042;47.318;19.874;2023-08-06T07:46:17;2.17;;;1.20;;
62941;SDS011;49042;47.318;19.874;2023-08-06T07:49:19;0.90;;;0.90;;
62941;SDS011;49042;47.318;19.874;2023-08-06T07:52:21;1.15;;;1.05;;
62941;SDS011;49042;47.318;19.874;2023-08-06T07:55:23;2.35;;;0.82;;
62941;SDS011;49042;47.318;19.874;2023-08-06T07:58:24;3.53;;;0.80;;
62941;SDS011;49042;47.318;19.874;2023-08-06T08:01:26;0.70;;;0.70;;
62941;SDS011;49042;47.318;19.874;2023-08-06T08:04:28;1.00;;;0.70;;
62941;SDS011;49042;47.318;19.874;2023-08-06T08:07:30;0.90;;;0.70;;
62941;SDS011;49042;47.318;19.874;2023-08-06T08:10:32;1.85;;;0.70;;
62941;SDS011;49042;47.318;19.874;2023-08-06T08:13:34;1.27;;;0.60;;
62941;SDS011;49042;47.318;19.874;2023-08-06T08:16:36;5.68;;;0.70;;
62941;SDS011;49042;47.318;19.874;2023-08-06T08:19:38;2.30;;;0.60;;
62941;SDS011;49042;47.318;19.874;2023-08-06T08:22:39;0.55;;;0.55;;
62941;SDS011;49042;47.318;19.874;2023-08-06T08:25:41;1.23;;;0.70;;
62941;SDS011;49042;47.318;19.874;2023-08-06T08:28:43;0.52;;;0.52;;
62941;SDS011;49042;47.318;19.874;2023-08-06T08:31:45;0.77;;;0.77;;
62941;SDS011;49042;47.318;19.874;2023-08-06T08:34:46;0.60;;;0.60;;
62941;SDS011;49042;47.318;19.874;2023-08-06T08:37:48;0.62;;;0.62;;
62941;SDS011;49042;47.318;19.874;2023-08-06T08:40:51;0.70;;;0.70;;
62941;SDS011;49042;47.318;19.874;2023-08-06T08:43:54;3.08;;;0.70;;
62941;SDS011;49042;47.318;19.874;2023-08-06T08:46:57;0.60;;;0.60;;
62941;SDS011;49042;47.318;19.874;2023-08-06T08:50:00;0.90;;;0.60;;
62941;SDS011;49042;47.318;19.874;2023-08-06T08:53:03;0.77;;;0.73;;
62941;SDS011;49042;47.318;19.874;2023-08-06T08:56:06;0.70;;;0.70;;
62941;SDS011;49042;47.318;19.874;2023-08-06T08:59:09;0.73;;;0.70;;
62941;SDS011;49042;47.318;19.874;2023-08-06T09:02:12;3.15;;;0.80;;
62941;SDS011;49042;47.318;19.874;2023-08-06T09:05:16;1.33;;;0.70;;
62941;SDS011;49042;47.318;19.874;2023-08-06T09:08:21;0.95;;;0.60;;
62941;SDS011;49042;47.318;19.874;2023-08-06T09:11:29;0.60;;;0.60;;
62941;SDS011;49042;47.318;19.874;2023-08-06T09:14:40;0.70;;;0.70;;
62941;SDS011;49042;47.318;19.874;2023-08-06T09:17:43;0.70;;;0.70;;
62941;SDS011;49042;47.318;19.874;2023-08-06T09:20:44;1.30;;;0.60;;
62941;SDS011;49042;47.318;19.874;2023-08-06T09:23:46;2.28;;;0.65;;
62941;SDS011;49042;47.318;19.874;2023-08-06T09:26:48;1.17;;;0.50;;
62941;SDS011;49042;47.318;19.874;2023-08-06T09:29:50;1.23;;;0.80;;
62941;SDS011;49042;47.318;19.874;2023-08-06T09:32:51;0.60;;;0.60;;
62941;SDS011;49042;47.318;19.874;2023-08-06T09:35:53;5.07;;;2.28;;
62941;SDS011;49042;47.318;19.874;2023-08-06T09:38:56;0.62;;;0.60;;
62941;SDS011;49042;47.318;19.874;2023-08-06T09:41:58;0.68;;;0.57;;
62941;SDS011;49042;47.318;19.874;2023-08-06T09:45:07;0.73;;;0.70;;
62941;SDS011;49042;47.318;19.874;2023-08-06T09:48:09;1.20;;;0.50;;
62941;SDS011;49042;47.318;19.874;2023-08-06T09:51:12;1.95;;;0.77;;
62941;SDS011;49042;47.318;19.874;2023-08-06T09:54:15;0.60;;;0.60;;
62941;SDS011;49042;47.318;19.874;2023-08-06T09:57:28;1.12;;;0.60;;
62941;SDS011;49042;47.318;19.874;2023-08-06T10:00:31;2.05;;;0.52;;
62941;SDS011;49042;47.318;19.874;2023-08-06T10:03:38;2.12;;;0.73;;
62941;SDS011;49042;47.318;19.874;2023-08-06T10:06:42;0.50;;;0.50;;
62941;SDS011;49042;47.318;19.874;2023-08-06T10:09:44;0.50;;;0.50;;
62941;SDS011;49042;47.318;19.874;2023-08-06T10:12:47;0.50;;;0.50;;
62941;SDS011;49042;47.318;19.874;2023-08-06T10:15:51;2.35;;;0.40;;
62941;SDS011;49042;47.318;19.874;2023-08-06T10:18:53;1.45;;;0.57;;
62941;SDS011;49042;47.318;19.874;2023-08-06T10:22:15;3.03;;;0.50;;
62941;SDS011;49042;47.318;19.874;2023-08-06T10:25:19;0.50;;;0.47;;
62941;SDS011;49042;47.318;19.874;2023-08-06T10:28:20;0.40;;;0.40;;
62941;SDS011;49042;47.318;19.874;2023-08-06T10:34:57;0.40;;;0.40;;
62941;SDS011;49042;47.318;19.874;2023-08-06T10:41:27;1.10;;;0.50;;
62941;SDS011;49042;47.318;19.874;2023-08-06T10:44:30;0.70;;;0.50;;
62941;SDS011;49042;47.318;19.874;2023-08-06T10:47:37;0.65;;;0.65;;
62941;SDS011;49042;47.318;19.874;2023-08-06T10:50:44;0.62;;;0.60;;
62941;SDS011;49042;47.318;19.874;2023-08-06T10:53:48;1.37;;;0.40;;
62941;SDS011;49042;47.318;19.874;2023-08-06T10:56:51;0.40;;;0.40;;
62941;SDS011;49042;47.318;19.874;2023-08-06T10:59:52;0.55;;;0.55;;
62941;SDS011;49042;47.318;19.874;2023-08-06T11:03:11;1.55;;;0.60;;
62941;SDS011;49042;47.318;19.874;2023-08-06T11:06:19;1.20;;;0.57;;
62941;SDS011;49042;47.318;19.874;2023-08-06T11:09:22;1.17;;;0.50;;
62941;SDS011;49042;47.318;19.874;2023-08-06T11:12:24;0.50;;;0.50;;
62941;SDS011;49042;47.318;19.874;2023-08-06T11:15:25;0.50;;;0.50;;
62941;SDS011;49042;47.318;19.874;2023-08-06T11:18:28;0.77;;;0.60;;
62941;SDS011;49042;47.318;19.874;2023-08-06T11:21:30;0.50;;;0.50;;
62941;SDS011;49042;47.318;19.874;2023-08-06T11:24:31;5.60;;;0.68;;
62941;SDS011;49042;47.318;19.874;2023-08-06T11:27:33;0.50;;;0.50;;
62941;SDS011;49042;47.318;19.874;2023-08-06T11:30:35;1.40;;;0.60;;
62941;SDS011;49042;47.318;19.874;2023-08-06T11:33:40;0.98;;;0.52;;
62941;SDS011;49042;47.318;19.874;2023-08-06T11:36:42;0.70;;;0.70;;
62941;SDS011;49042;47.318;19.874;2023-08-06T11:39:46;0.50;;;0.50;;
62941;SDS011;49042;47.318;19.874;2023-08-06T11:42:50;0.60;;;0.60;;
62941;SDS011;49042;47.318;19.874;2023-08-06T11:45:52;1.05;;;0.60;;
62941;SDS011;49042;47.318;19.874;2023-08-06T11:48:56;0.50;;;0.50;;
62941;SDS011;49042;47.318;19.874;2023-08-06T11:52:06;0.50;;;0.50;;
62941;SDS011;49042;47.318;19.874;2023-08-06T11:55:10;0.80;;;0.80;;
62941;SDS011;49042;47.318;19.874;2023-08-06T11:58:12;0.90;;;0.70;;
62941;SDS011;49042;47.318;19.874;2023-08-06T12:01:14;3.03;;;0.60;;
62941;SDS011;49042;47.318;19.874;2023-08-06T12:04:15;0.57;;;0.57;;
62941;SDS011;49042;47.318;19.874;2023-08-06T12:07:17;0.65;;;0.65;;
62941;SDS011;49042;47.318;19.874;2023-08-06T12:10:19;1.50;;;0.60;;
62941;SDS011;49042;47.318;19.874;2023-08-06T12:13:22;0.60;;;0.60;;
62941;SDS011;49042;47.318;19.874;2023-08-06T12:16:23;0.95;;;0.55;;
62941;SDS011;49042;47.318;19.874;2023-08-06T12:19:25;0.50;;;0.50;;
62941;SDS011;49042;47.318;19.874;2023-08-06T12:22:27;1.65;;;0.60;;
62941;SDS011;49042;47.318;19.874;2023-08-06T12:25:29;0.50;;;0.50;;
62941;SDS011;49042;47.318;19.874;2023-08-06T12:28:31;0.90;;;0.50;;
62941;SDS011;49042;47.318;19.874;2023-08-06T12:31:32;0.40;;;0.40;;
62941;SDS011;49042;47.318;19.874;2023-08-06T12:34:34;1.23;;;0.57;;
62941;SDS011;49042;47.318;19.874;2023-08-06T12:37:52;0.82;;;0.60;;
62941;SDS011;49042;47.318;19.874;2023-08-06T12:40:56;5.45;;;0.65;;
62941;SDS011;49042;47.318;19.874;2023-08-06T12:43:57;0.52;;;0.50;;
62941;SDS011;49042;47.318;19.874;2023-08-06T12:46:59;0.68;;;0.50;;
62941;SDS011;49042;47.318;19.874;2023-08-06T12:50:01;4.87;;;0.68;;
62941;SDS011;49042;47.318;19.874;2023-08-06T12:53:02;0.50;;;0.50;;
62941;SDS011;49042;47.318;19.874;2023-08-06T12:56:06;1.85;;;0.65;;
62941;SDS011;49042;47.318;19.874;2023-08-06T12:59:07;0.50;;;0.50;;
62941;SDS011;49042;47.318;19.874;2023-08-06T13:02:09;1.02;;;0.60;;
62941;SDS011;49042;47.318;19.874;2023-08-06T13:05:12;2.47;;;0.60;;
62941;SDS011;49042;47.318;19.874;2023-08-06T13:08:14;1.87;;;0.70;;
62941;SDS011;49042;47.318;19.874;2023-08-06T13:11:16;0.40;;;0.40;;
62941;SDS011;49042;47.318;19.874;2023-08-06T13:14:18;0.60;;;0.60;;
62941;SDS011;49042;47.318;19.874;2023-08-06T13:17:21;1.27;;;0.60;;
62941;SDS011;49042;47.318;19.874;2023-08-06T13:20:23;2.37;;;0.60;;
62941;SDS011;49042;47.318;19.874;2023-08-06T13:23:25;0.60;;;0.60;;
62941;SDS011;49042;47.318;19.874;2023-08-06T13:26:28;1.05;;;0.70;;
62941;SDS011;49042;47.318;19.874;2023-08-06T13:29:33;2.60;;;0.60;;
62941;SDS011;49042;47.318;19.874;2023-08-06T13:32:35;1.08;;;0.80;;
62941;SDS011;49042;47.318;19.874;2023-08-06T13:35:38;1.02;;;0.80;;
62941;SDS011;49042;47.318;19.874;2023-08-06T13:38:40;1.00;;;0.70;;
62941;SDS011;49042;47.318;19.874;2023-08-06T13:41:42;3.70;;;0.80;;
62941;SDS011;49042;47.318;19.874;2023-08-06T13:44:44;1.45;;;0.80;;
62941;SDS011;49042;47.318;19.874;2023-08-06T13:47:46;0.90;;;0.73;;
62941;SDS011;49042;47.318;19.874;2023-08-06T13:50:49;4.05;;;0.62;;
62941;SDS011;49042;47.318;19.874;2023-08-06T13:53:56;0.75;;;0.70;;
62941;SDS011;49042;47.318;19.874;2023-08-06T13:56:59;0.93;;;0.70;;
62941;SDS011;49042;47.318;19.874;2023-08-06T14:00:01;0.65;;;0.65;;
62941;SDS011;49042;47.318;19.874;2023-08-06T14:03:03;2.35;;;0.77;;
62941;SDS011;49042;47.318;19.874;2023-08-06T14:06:05;1.70;;;0.70;;
62941;SDS011;49042;47.318;19.874;2023-08-06T14:09:07;1.90;;;0.80;;
62941;SDS011;49042;47.318;19.874;2023-08-06T14:12:09;0.85;;;0.75;;
62941;SDS011;49042;47.318;19.874;2023-08-06T14:15:11;1.20;;;1.10;;
62941;SDS011;49042;47.318;19.874;2023-08-06T14:18:14;0.95;;;0.80;;
62941;SDS011;49042;47.318;19.874;2023-08-06T14:21:16;1.10;;;1.00;;
62941;SDS011;49042;47.318;19.874;2023-08-06T14:24:19;1.60;;;1.05;;
62941;SDS011;49042;47.318;19.874;2023-08-06T14:27:21;1.40;;;0.93;;
62941;SDS011;49042;47.318;19.874;2023-08-06T14:30:23;1.35;;;1.00;;
62941;SDS011;49042;47.318;19.874;2023-08-06T14:33:26;2.87;;;1.00;;
62941;SDS011;49042;47.318;19.874;2023-08-06T14:36:28;0.88;;;0.88;;
62941;SDS011;49042;47.318;19.874;2023-08-06T14:39:30;0.93;;;0.90;;
62941;SDS011;49042;47.318;19.874;2023-08-06T14:42:35;3.28;;;0.98;;
62941;SDS011;49042;47.318;19.874;2023-08-06T14:45:38;2.65;;;0.95;;
62941;SDS011;49042;47.318;19.874;2023-08-06T14:48:40;0.80;;;0.80;;
62941;SDS011;49042;47.318;19.874;2023-08-06T14:51:43;3.53;;;1.12;;
62941;SDS011;49042;47.318;19.874;2023-08-06T14:54:45;1.55;;;1.17;;
62941;SDS011;49042;47.318;19.874;2023-08-06T14:57:47;3.08;;;1.10;;
62941;SDS011;49042;47.318;19.874;2023-08-06T15:00:49;1.90;;;0.90;;
62941;SDS011;49042;47.318;19.874;2023-08-06T15:03:51;1.20;;;1.10;;
62941;SDS011;49042;47.318;19.874;2023-08-06T15:06:54;1.17;;;1.08;;
62941;SDS011;49042;47.318;19.874;2023-08-06T15:09:58;1.73;;;1.20;;
62941;SDS011;49042;47.318;19.874;2023-08-06T15:13:03;2.28;;;1.37;;
62941;SDS011;49042;47.318;19.874;2023-08-06T15:16:05;1.37;;;1.27;;
62941;SDS011;49042;47.318;19.874;2023-08-06T15:19:07;1.92;;;1.25;;
62941;SDS011;49042;47.318;19.874;2023-08-06T15:22:09;1.20;;;1.10;;
62941;SDS011;49042;47.318;19.874;2023-08-06T15:25:13;1.65;;;1.30;;
62941;SDS011;49042;47.318;19.874;2023-08-06T15:28:16;2.60;;;1.30;;
62941;SDS011;49042;47.318;19.874;2023-08-06T15:31:21;3.40;;;1.40;;
62941;SDS011;49042;47.318;19.874;2023-08-06T15:34:24;3.17;;;1.60;;
62941;SDS011;49042;47.318;19.874;2023-08-06T15:37:26;1.90;;;1.30;;
62941;SDS011;49042;47.318;19.874;2023-08-06T15:40:29;1.60;;;1.42;;
62941;SDS011;49042;47.318;19.874;2023-08-06T15:43:31;2.40;;;1.50;;
62941;SDS011;49042;47.318;19.874;2023-08-06T15:46:34;1.80;;;1.58;;
62941;SDS011;49042;47.318;19.874;2023-08-06T15:49:37;1.67;;;1.58;;
62941;SDS011;49042;47.318;19.874;2023-08-06T15:52:39;1.60;;;1.50;;
62941;SDS011;49042;47.318;19.874;2023-08-06T15:55:42;1.73;;;1.62;;
62941;SDS011;49042;47.318;19.874;2023-08-06T15:58:44;2.10;;;1.35;;
62941;SDS011;49042;47.318;19.874;2023-08-06T16:01:46;2.30;;;1.45;;
62941;SDS011;49042;47.318;19.874;2023-08-06T16:04:48;1.77;;;1.60;;
62941;SDS011;49042;47.318;19.874;2023-08-06T16:07:50;1.40;;;1.30;;
62941;SDS011;49042;47.318;19.874;2023-08-06T16:10:53;1.95;;;1.40;;
62941;SDS011;49042;47.318;19.874;2023-08-06T16:13:55;1.92;;;1.40;;
62941;SDS011;49042;47.318;19.874;2023-08-06T16:16:57;1.48;;;1.37;;
62941;SDS011;49042;47.318;19.874;2023-08-06T16:19:59;2.50;;;1.50;;
62941;SDS011;49042;47.318;19.874;2023-08-06T16:23:01;1.95;;;1.60;;
62941;SDS011;49042;47.318;19.874;2023-08-06T16:26:04;2.33;;;1.37;;
62941;SDS011;49042;47.318;19.874;2023-08-06T16:29:07;2.10;;;1.58;;
62941;SDS011;49042;47.318;19.874;2023-08-06T16:32:09;4.97;;;1.50;;
62941;SDS011;49042;47.318;19.874;2023-08-06T16:35:11;1.60;;;1.50;;
62941;SDS011;49042;47.318;19.874;2023-08-06T16:38:13;2.67;;;1.50;;
62941;SDS011;49042;47.318;19.874;2023-08-06T16:41:16;3.50;;;1.40;;
62941;SDS011;49042;47.318;19.874;2023-08-06T16:44:19;1.92;;;1.60;;
62941;SDS011;49042;47.318;19.874;2023-08-06T16:47:21;6.45;;;1.60;;
62941;SDS011;49042;47.318;19.874;2023-08-06T16:50:23;1.58;;;1.48;;
62941;SDS011;49042;47.318;19.874;2023-08-06T16:53:26;1.45;;;1.35;;
62941;SDS011;49042;47.318;19.874;2023-08-06T16:56:29;6.15;;;1.50;;
62941;SDS011;49042;47.318;19.874;2023-08-06T16:59:31;1.58;;;1.48;;
62941;SDS011;49042;47.318;19.874;2023-08-06T17:02:33;1.50;;;1.40;;
62941;SDS011;49042;47.318;19.874;2023-08-06T17:05:35;2.40;;;1.62;;
62941;SDS011;49042;47.318;19.874;2023-08-06T17:08:37;2.12;;;1.60;;
62941;SDS011;49042;47.318;19.874;2023-08-06T17:11:40;3.70;;;1.60;;
62941;SDS011;49042;47.318;19.874;2023-08-06T17:14:42;1.77;;;1.40;;
62941;SDS011;49042;47.318;19.874;2023-08-06T17:17:44;2.17;;;1.30;;
62941;SDS011;49042;47.318;19.874;2023-08-06T17:20:46;2.50;;;1.50;;
62941;SDS011;49042;47.318;19.874;2023-08-06T17:23:49;4.65;;;1.50;;
62941;SDS011;49042;47.318;19.874;2023-08-06T17:26:51;1.60;;;1.50;;
62941;SDS011;49042;47.318;19.874;2023-08-06T17:30:00;1.42;;;1.33;;
62941;SDS011;49042;47.318;19.874;2023-08-06T17:33:02;1.95;;;1.40;;
62941;SDS011;49042;47.318;19.874;2023-08-06T17:36:04;1.73;;;1.62;;
62941;SDS011;49042;47.318;19.874;2023-08-06T17:39:06;1.70;;;1.35;;
62941;SDS011;49042;47.318;19.874;2023-08-06T17:42:08;1.70;;;1.60;;
62941;SDS011;49042;47.318;19.874;2023-08-06T17:45:14;1.80;;;1.67;;
62941;SDS011;49042;47.318;19.874;2023-08-06T17:48:16;2.10;;;1.90;;
62941;SDS011;49042;47.318;19.874;2023-08-06T17:51:19;1.85;;;1.50;;
62941;SDS011;49042;47.318;19.874;2023-08-06T17:54:21;2.25;;;1.70;;
62941;SDS011;49042;47.318;19.874;2023-08-06T17:57:23;2.83;;;1.60;;
62941;SDS011;49042;47.318;19.874;2023-08-06T18:00:25;2.00;;;1.52;;
62941;SDS011;49042;47.318;19.874;2023-08-06T18:03:28;2.83;;;1.70;;
62941;SDS011;49042;47.318;19.874;2023-08-06T18:06:30;2.72;;;1.48;;
62941;SDS011;49042;47.318;19.874;2023-08-06T18:09:33;1.73;;;1.33;;
62941;SDS011;49042;47.318;19.874;2023-08-06T18:12:36;2.20;;;1.60;;
62941;SDS011;49042;47.318;19.874;2023-08-06T18:15:38;1.65;;;1.30;;
62941;SDS011;49042;47.318;19.874;2023-08-06T18:18:40;1.90;;;1.60;;